createdAt,value
2019-06-27T00:00:24.526Z,98002.77
2019-06-27T00:02:51.366Z,97991.42
2019-06-27T00:05:18.144Z,97989.05
2019-06-27T00:07:44.939Z,97990.36
2019-06-27T00:10:11.823Z,97986.41
2019-06-27T00:12:38.608Z,97988.25
2019-06-27T00:15:05.408Z,97987.45
2019-06-27T00:17:32.185Z,97996.44
2019-06-27T00:19:58.997Z,97991.69
2019-06-27T00:22:25.774Z,97990.89
2019-06-27T00:24:52.596Z,98009.37
2019-06-27T00:27:19.480Z,97993.00
2019-06-27T00:29:46.282Z,97987.45
2019-06-27T00:32:13.059Z,97990.36
2019-06-27T00:34:39.886Z,98000.92
2019-06-27T00:37:06.663Z,97998.81
2019-06-27T00:39:33.438Z,97998.28
2019-06-27T00:42:00.218Z,98006.20
2019-06-27T00:44:26.980Z,98005.41
2019-06-27T00:46:53.789Z,98006.73
2019-06-27T00:49:20.552Z,98010.69
2019-06-27T00:51:47.354Z,98008.58
2019-06-27T00:54:14.130Z,98014.65
2019-06-27T00:56:40.910Z,98016.77
2019-06-27T00:59:07.692Z,98014.13
2019-06-27T01:01:34.502Z,98008.05
2019-06-27T01:04:01.360Z,98008.05
2019-06-27T01:06:28.136Z,98014.13
2019-06-27T01:08:54.958Z,98008.84
2019-06-27T01:11:21.794Z,98009.09
2019-06-27T01:13:48.618Z,98006.46
2019-06-27T01:16:15.390Z,98001.70
2019-06-27T01:18:42.436Z,98008.05
2019-06-27T01:21:09.214Z,98009.37
2019-06-27T01:23:36.000Z,98004.89
2019-06-27T01:26:02.813Z,98010.69
2019-06-27T01:28:29.582Z,98006.73
2019-06-27T01:30:56.412Z,98015.97
2019-06-27T01:33:23.191Z,98009.09
2019-06-27T01:35:49.980Z,98012.53
2019-06-27T01:38:16.765Z,98013.33
2019-06-27T01:40:43.572Z,98015.45
2019-06-27T01:43:10.354Z,98016.49
2019-06-27T01:45:38.815Z,98016.49
2019-06-27T01:48:05.594Z,98014.38
2019-06-27T01:50:32.366Z,98029.42
2019-06-27T01:52:59.175Z,98017.81
2019-06-27T01:55:25.951Z,98014.91
2019-06-27T01:57:52.797Z,98022.56
2019-06-27T02:00:19.631Z,98018.34
2019-06-27T02:02:46.466Z,98014.91
2019-06-27T02:05:13.246Z,98016.23
2019-06-27T02:07:40.020Z,98014.91
2019-06-27T02:10:06.857Z,98018.34
2019-06-27T02:12:33.648Z,98015.17
2019-06-27T02:15:00.440Z,98018.34
2019-06-27T02:17:27.223Z,98016.49
2019-06-27T02:19:54.262Z,98016.23
2019-06-27T02:22:21.092Z,98013.86
2019-06-27T02:24:47.879Z,98023.62
2019-06-27T02:27:14.645Z,98022.30
2019-06-27T02:29:41.435Z,98017.55
2019-06-27T02:32:08.214Z,98020.45
2019-06-27T02:34:34.994Z,98020.98
2019-06-27T02:37:01.761Z,98021.25
2019-06-27T02:39:28.569Z,98013.59
2019-06-27T02:41:55.354Z,98013.59
2019-06-27T02:44:22.142Z,98018.61
2019-06-27T02:46:49.038Z,98006.72
2019-06-27T02:49:15.829Z,98005.40
2019-06-27T02:51:42.620Z,98012.27
2019-06-27T02:54:09.474Z,98007.78
2019-06-27T02:56:36.274Z,98015.70
2019-06-27T02:59:03.088Z,98013.86
2019-06-27T03:01:29.916Z,98018.34
2019-06-27T03:03:56.700Z,98019.66
2019-06-27T03:06:23.480Z,98026.26
2019-06-27T03:08:50.273Z,98018.34
2019-06-27T03:11:17.069Z,98017.81
2019-06-27T03:13:43.838Z,98014.91
2019-06-27T03:16:10.726Z,98016.23
2019-06-27T03:18:37.511Z,98011.73
2019-06-27T03:21:04.294Z,98017.02
2019-06-27T03:23:31.092Z,98015.44
2019-06-27T03:25:57.931Z,98015.44
2019-06-27T03:28:24.726Z,98015.70
2019-06-27T03:30:51.501Z,98016.23
2019-06-27T03:33:18.279Z,98012.27
2019-06-27T03:35:45.051Z,98013.59
2019-06-27T03:38:12.190Z,98014.91
2019-06-27T03:40:38.971Z,98009.09
2019-06-27T03:43:05.758Z,98010.42
2019-06-27T03:45:32.531Z,98002.23
2019-06-27T03:47:59.326Z,98005.67
2019-06-27T03:50:26.105Z,98007.52
2019-06-27T03:52:52.908Z,98004.34
2019-06-27T03:55:19.668Z,98006.46
2019-06-27T03:57:46.449Z,98006.19
2019-06-27T04:00:13.239Z,98006.19
2019-06-27T04:02:40.016Z,98013.86
2019-06-27T04:05:07.060Z,98011.47
2019-06-27T04:07:33.931Z,98017.81
2019-06-27T04:10:00.688Z,98014.11
2019-06-27T04:12:27.470Z,98017.02
2019-06-27T04:14:54.250Z,98021.50
2019-06-27T04:17:21.277Z,98020.19
2019-06-27T04:19:48.069Z,98019.91
2019-06-27T04:22:17.453Z,98018.34
2019-06-27T04:24:43.655Z,98017.02
2019-06-27T04:27:10.452Z,98015.44
2019-06-27T04:29:37.221Z,98010.95
2019-06-27T04:32:04.039Z,98014.38
2019-06-27T04:34:30.824Z,98010.95
2019-06-27T04:36:57.603Z,98013.31
2019-06-27T04:39:24.386Z,98002.23
2019-06-27T04:41:51.175Z,98010.16
2019-06-27T04:44:17.938Z,98013.86
2019-06-27T04:46:45.047Z,98011.73
2019-06-27T04:49:13.735Z,98012.00
2019-06-27T04:51:40.334Z,98009.09
2019-06-27T04:54:07.156Z,98005.14
2019-06-27T04:56:33.920Z,98004.34
2019-06-27T04:59:00.688Z,98010.16
2019-06-27T05:01:27.746Z,98011.47
2019-06-27T05:03:54.586Z,98009.09
2019-06-27T05:06:21.630Z,98010.16
2019-06-27T05:08:48.446Z,98006.46
2019-06-27T05:11:15.204Z,98004.34
2019-06-27T05:13:42.031Z,97999.59
2019-06-27T05:16:08.792Z,98002.50
2019-06-27T05:18:35.606Z,97998.27
2019-06-27T05:21:02.379Z,97990.88
2019-06-27T05:23:29.199Z,97999.59
2019-06-27T05:25:56.008Z,98002.77
2019-06-27T05:28:23.113Z,98008.58
2019-06-27T05:30:51.578Z,98005.41
2019-06-27T05:33:18.386Z,98011.22
2019-06-27T05:35:45.210Z,98002.50
2019-06-27T05:38:11.973Z,98010.69
2019-06-27T05:40:38.763Z,98005.94
2019-06-27T05:43:05.714Z,98004.62
2019-06-27T05:45:32.560Z,98005.14
2019-06-27T05:47:59.405Z,98005.14
2019-06-27T05:50:26.288Z,97913.91
2019-06-27T05:52:53.079Z,98001.45
2019-06-27T05:55:19.890Z,98005.94
2019-06-27T05:57:46.703Z,98005.14
2019-06-27T06:00:27.380Z,97995.63
2019-06-27T06:02:42.018Z,97998.27
2019-06-27T06:05:08.799Z,98005.14
2019-06-27T06:07:35.716Z,98000.66
2019-06-27T06:10:02.515Z,98007.26
2019-06-27T06:12:29.320Z,98007.26
2019-06-27T06:14:56.121Z,98011.73
2019-06-27T06:17:22.950Z,98011.48
2019-06-27T06:19:49.799Z,98014.65
2019-06-27T06:22:16.566Z,98019.41
2019-06-27T06:24:43.354Z,98017.28
2019-06-27T06:27:10.143Z,98019.92
2019-06-27T06:29:36.918Z,98015.97
2019-06-27T06:32:03.681Z,98018.08
2019-06-27T06:34:30.509Z,98020.72
2019-06-27T06:36:57.333Z,98018.08
2019-06-27T06:39:24.174Z,98025.48
2019-06-27T06:41:50.950Z,98042.64
2019-06-27T06:44:17.731Z,98051.34
2019-06-27T06:46:44.504Z,98055.58
2019-06-27T06:49:11.291Z,98055.31
2019-06-27T06:51:38.091Z,98046.59
2019-06-27T06:54:04.870Z,98053.20
2019-06-27T06:56:31.646Z,98050.03
2019-06-27T06:58:58.419Z,98050.55
2019-06-27T07:01:25.229Z,98050.55
2019-06-27T07:03:51.990Z,98047.39
2019-06-27T07:06:18.773Z,98047.91
2019-06-27T07:08:45.558Z,98049.51
2019-06-27T07:11:12.371Z,98054.27
2019-06-27T07:13:39.136Z,98049.51
2019-06-27T07:16:05.927Z,98050.83
2019-06-27T07:18:32.728Z,98056.11
2019-06-27T07:20:59.496Z,98048.71
2019-06-27T07:23:26.278Z,98050.03
2019-06-27T07:25:53.058Z,98048.71
2019-06-27T07:28:19.881Z,98055.31
2019-06-27T07:30:46.641Z,98055.58
2019-06-27T07:33:13.466Z,98056.11
2019-06-27T07:35:40.244Z,98061.66
2019-06-27T07:38:07.050Z,98055.58
2019-06-27T07:40:33.816Z,98055.58
2019-06-27T07:43:00.629Z,98055.58
2019-06-27T07:45:27.459Z,98052.41
2019-06-27T07:47:54.299Z,98052.94
2019-06-27T07:50:21.160Z,98059.02
2019-06-27T07:52:47.932Z,98062.18
2019-06-27T07:55:14.723Z,98065.91
2019-06-27T07:57:41.515Z,98054.53
2019-06-27T08:00:08.300Z,98056.91
2019-06-27T08:02:35.121Z,98062.75
2019-06-27T08:05:01.885Z,98059.02
2019-06-27T08:07:28.659Z,97986.45
2019-06-27T08:09:55.424Z,98061.95
2019-06-27T08:12:22.277Z,98059.81
2019-06-27T08:14:49.074Z,98061.12
2019-06-27T08:17:15.927Z,98063.77
2019-06-27T08:19:42.715Z,98062.75
2019-06-27T08:22:09.524Z,98061.95
2019-06-27T08:24:36.313Z,98061.43
2019-06-27T08:27:03.139Z,98068.83
2019-06-27T08:29:29.905Z,98061.12
2019-06-27T08:31:56.682Z,97979.62
2019-06-27T08:34:23.466Z,98064.07
2019-06-27T08:36:50.261Z,98066.71
2019-06-27T08:39:17.125Z,98068.83
2019-06-27T08:41:43.903Z,98066.71
2019-06-27T08:44:10.680Z,98070.94
2019-06-27T08:46:37.448Z,98060.11
2019-06-27T08:49:04.262Z,98061.43
2019-06-27T08:51:31.045Z,98068.83
2019-06-27T08:53:57.881Z,98065.13
2019-06-27T08:56:24.982Z,98066.71
2019-06-27T08:58:51.794Z,98064.34
2019-06-27T09:01:18.871Z,98058.27
2019-06-27T09:03:45.770Z,98060.38
2019-06-27T09:06:12.599Z,98064.34
2019-06-27T09:08:39.380Z,98061.70
2019-06-27T09:11:06.248Z,98062.49
2019-06-27T09:13:33.032Z,98067.77
2019-06-27T09:15:59.901Z,98065.66
2019-06-27T09:18:26.659Z,98067.25
2019-06-27T09:20:53.461Z,98074.38
2019-06-27T09:23:20.248Z,98074.38
2019-06-27T09:25:47.082Z,98073.84
2019-06-27T09:28:13.890Z,98072.53
2019-06-27T09:30:40.680Z,98073.58
2019-06-27T09:33:07.491Z,98073.59
2019-06-27T09:35:34.290Z,98072.53
2019-06-27T09:38:01.159Z,98068.56
2019-06-27T09:40:28.021Z,98077.28
2019-06-27T09:42:54.811Z,98065.41
2019-06-27T09:45:21.593Z,98002.15
2019-06-27T09:47:48.399Z,98061.97
2019-06-27T09:50:15.218Z,98061.17
2019-06-27T09:52:41.980Z,98061.97
2019-06-27T09:55:08.766Z,98060.13
2019-06-27T09:57:35.634Z,98061.97
2019-06-27T10:00:02.463Z,98054.84
2019-06-27T10:02:41.064Z,98047.45
2019-06-27T10:04:57.858Z,98041.64
2019-06-27T10:07:24.659Z,98044.81
2019-06-27T10:09:51.434Z,98036.09
2019-06-27T10:12:18.226Z,98043.23
2019-06-27T10:14:45.029Z,98037.69
2019-06-27T10:17:11.794Z,98041.64
2019-06-27T10:19:38.595Z,98037.69
2019-06-27T10:22:05.369Z,98041.12
2019-06-27T10:24:32.253Z,98037.16
2019-06-27T10:26:59.020Z,98033.98
2019-06-27T10:29:25.833Z,98027.92
2019-06-27T10:31:52.741Z,98038.22
2019-06-27T10:34:19.550Z,98028.71
2019-06-27T10:36:46.360Z,98033.98
2019-06-27T10:39:13.132Z,98028.19
2019-06-27T10:41:39.939Z,98030.03
2019-06-27T10:44:06.756Z,98035.58
2019-06-27T10:46:33.534Z,98030.55
2019-06-27T10:49:00.352Z,98019.47
2019-06-27T10:51:27.425Z,98021.59
2019-06-27T10:53:54.238Z,98021.59
2019-06-27T10:56:21.085Z,98024.75
2019-06-27T10:58:47.856Z,98024.23
2019-06-27T11:01:14.675Z,98017.63
2019-06-27T11:03:41.455Z,98017.89
2019-06-27T11:06:08.292Z,98017.09
2019-06-27T11:08:35.144Z,98018.42
2019-06-27T11:11:01.967Z,98009.97
2019-06-27T11:13:28.802Z,98009.97
2019-06-27T11:15:55.628Z,98004.69
2019-06-27T11:18:22.438Z,98005.22
2019-06-27T11:20:49.219Z,98010.77
2019-06-27T11:23:16.027Z,97997.30
2019-06-27T11:25:42.849Z,97994.13
2019-06-27T11:28:10.342Z,97997.56
2019-06-27T11:30:37.234Z,98000.73
2019-06-27T11:33:04.058Z,97988.85
2019-06-27T11:35:30.860Z,97984.37
2019-06-27T11:37:57.694Z,97983.05
2019-06-27T11:40:24.483Z,97990.44
2019-06-27T11:42:51.329Z,97975.13
2019-06-27T11:45:18.108Z,97979.88
2019-06-27T11:47:44.881Z,97976.45
2019-06-27T11:50:11.671Z,97979.35
2019-06-27T11:52:38.476Z,97974.34
2019-06-27T11:55:05.507Z,97973.55
2019-06-27T11:57:32.310Z,97966.67
2019-06-27T11:59:59.096Z,97963.52
2019-06-27T12:02:25.871Z,97964.57
2019-06-27T12:04:52.649Z,97964.30
2019-06-27T12:07:19.422Z,97963.25
2019-06-27T12:09:46.188Z,97954.80
2019-06-27T12:12:12.975Z,97958.50
2019-06-27T12:14:39.754Z,97951.89
2019-06-27T12:17:06.581Z,97947.94
2019-06-27T12:19:33.348Z,97953.48
2019-06-27T12:22:00.121Z,97957.45
2019-06-27T12:24:26.951Z,97946.09
2019-06-27T12:26:53.736Z,97953.22
2019-06-27T12:29:20.856Z,97946.62
2019-06-27T12:31:51.339Z,97944.77
2019-06-27T12:34:16.241Z,97943.45
2019-06-27T12:36:43.069Z,97945.56
2019-06-27T12:39:09.844Z,97941.60
2019-06-27T12:41:36.634Z,97939.76
2019-06-27T12:44:03.751Z,97941.60
2019-06-27T12:46:30.561Z,97945.56
2019-06-27T12:48:57.380Z,97943.19
2019-06-27T12:51:24.196Z,97937.91
2019-06-27T12:53:50.973Z,97927.87
2019-06-27T12:56:17.751Z,97926.55
2019-06-27T12:58:44.522Z,97930.52
2019-06-27T13:01:11.354Z,97926.83
2019-06-27T13:03:38.143Z,97925.50
2019-06-27T13:06:04.905Z,97923.91
2019-06-27T13:08:31.694Z,97924.19
2019-06-27T13:10:58.491Z,97927.61
2019-06-27T13:13:25.277Z,97927.09
2019-06-27T13:15:52.054Z,97931.58
2019-06-27T13:18:18.846Z,97934.74
2019-06-27T13:20:57.152Z,97920.48
2019-06-27T13:23:14.295Z,97910.98
2019-06-27T13:25:41.068Z,97924.19
2019-06-27T13:28:07.907Z,97910.98
2019-06-27T13:30:34.699Z,97909.13
2019-06-27T13:33:01.471Z,97903.06
2019-06-27T13:35:28.261Z,97913.09
2019-06-27T13:37:55.025Z,97919.17
2019-06-27T13:40:21.868Z,97908.88
2019-06-27T13:42:48.638Z,97906.76
2019-06-27T13:45:15.441Z,97904.12
2019-06-27T13:47:42.200Z,97905.44
2019-06-27T13:50:08.992Z,97903.59
2019-06-27T13:52:35.749Z,97904.12
2019-06-27T13:55:02.552Z,97901.48
2019-06-27T13:57:29.366Z,97903.59
2019-06-27T13:59:56.160Z,97896.20
2019-06-27T14:02:22.958Z,97893.85
2019-06-27T14:04:57.113Z,97896.98
2019-06-27T14:07:18.286Z,97891.21
2019-06-27T14:09:53.724Z,97901.25
2019-06-27T14:12:13.614Z,97897.29
2019-06-27T14:14:40.400Z,97887.25
2019-06-27T14:17:07.225Z,97884.61
2019-06-27T14:19:34.008Z,97890.69
2019-06-27T14:22:00.782Z,97888.57
2019-06-27T14:24:27.641Z,97888.84
2019-06-27T14:26:54.419Z,97894.65
2019-06-27T14:29:21.198Z,97888.31
2019-06-27T14:31:47.995Z,97886.73
2019-06-27T14:34:14.774Z,97889.89
2019-06-27T14:36:41.545Z,97887.78
2019-06-27T14:39:08.339Z,97878.28
2019-06-27T14:41:35.104Z,97879.59
2019-06-27T14:44:01.902Z,97879.07
2019-06-27T14:46:28.668Z,97883.03
2019-06-27T14:48:56.881Z,97875.37
2019-06-27T14:51:23.827Z,97879.63
2019-06-27T14:53:50.634Z,97871.15
2019-06-27T14:56:17.460Z,97871.41
2019-06-27T14:58:44.300Z,97866.13
2019-06-27T15:01:11.080Z,97863.79
2019-06-27T15:03:37.925Z,97866.13
2019-06-27T15:06:04.726Z,97865.64
2019-06-27T15:08:31.506Z,97859.53
2019-06-27T15:10:58.337Z,97858.73
2019-06-27T15:13:25.109Z,97856.89
2019-06-27T15:15:51.910Z,97853.23
2019-06-27T15:18:19.066Z,97859.30
2019-06-27T15:20:45.916Z,97855.08
2019-06-27T15:23:12.736Z,97858.51
2019-06-27T15:25:39.514Z,97865.91
2019-06-27T15:28:06.277Z,97859.83
2019-06-27T15:30:33.061Z,97852.70
2019-06-27T15:32:59.868Z,97863.79
2019-06-27T15:35:26.634Z,97858.77
2019-06-27T15:37:53.703Z,97851.11
2019-06-27T15:40:20.515Z,97856.13
2019-06-27T15:42:47.333Z,97848.21
2019-06-27T15:45:14.097Z,97854.81
2019-06-27T15:47:40.886Z,97856.66
2019-06-27T15:50:07.678Z,97868.02
2019-06-27T15:52:34.453Z,97851.64
2019-06-27T15:55:01.249Z,97851.64
2019-06-27T15:57:28.030Z,97854.81
2019-06-27T15:59:54.793Z,97856.92
2019-06-27T16:02:21.561Z,97851.91
2019-06-27T16:04:48.354Z,97846.89
2019-06-27T16:07:15.212Z,97851.64
2019-06-27T16:09:41.986Z,97846.10
2019-06-27T16:12:08.807Z,97850.59
2019-06-27T16:14:35.585Z,97842.41
2019-06-27T16:17:02.391Z,97849.27
2019-06-27T16:19:29.166Z,97847.95
2019-06-27T16:21:56.011Z,97841.34
2019-06-27T16:24:22.780Z,97839.23
2019-06-27T16:26:49.635Z,97843.98
2019-06-27T16:29:16.451Z,97838.70
2019-06-27T16:31:43.288Z,97837.39
2019-06-27T16:34:10.147Z,97843.46
2019-06-27T16:36:37.040Z,97837.13
2019-06-27T16:39:04.999Z,97837.66
2019-06-27T16:41:31.836Z,97842.41
2019-06-27T16:43:58.686Z,97836.33
2019-06-27T16:46:25.491Z,97836.86
2019-06-27T16:48:52.257Z,97849.01
2019-06-27T16:51:20.582Z,97837.66
2019-06-27T16:53:47.596Z,97842.14
2019-06-27T16:56:14.375Z,97844.25
2019-06-27T16:58:41.162Z,97842.14
2019-06-27T17:01:07.953Z,97847.69
2019-06-27T17:03:34.742Z,97847.16
2019-06-27T17:06:01.587Z,97849.53
2019-06-27T17:08:28.404Z,97851.65
2019-06-27T17:10:58.550Z,97857.20
2019-06-27T17:13:23.692Z,97856.93
2019-06-27T17:15:50.475Z,97863.80
2019-06-27T17:18:17.268Z,97863.00
2019-06-27T17:20:44.184Z,97858.52
2019-06-27T17:23:11.272Z,97864.33
2019-06-27T17:25:38.072Z,97866.44
2019-06-27T17:28:04.856Z,97861.95
2019-06-27T17:30:31.648Z,97861.69
2019-06-27T17:32:58.418Z,97867.23
2019-06-27T17:35:25.252Z,97873.56
2019-06-27T17:37:52.016Z,97874.63
2019-06-27T17:40:18.827Z,97875.16
2019-06-27T17:42:45.659Z,97883.08
2019-06-27T17:45:12.538Z,97883.08
2019-06-27T17:47:39.803Z,97882.28
2019-06-27T17:50:06.606Z,97883.08
2019-06-27T17:52:33.402Z,97879.91
2019-06-27T17:55:00.170Z,97881.75
2019-06-27T17:57:26.985Z,97881.23
2019-06-27T17:59:53.754Z,97886.52
2019-06-27T18:02:20.556Z,97883.08
2019-06-27T18:04:47.335Z,97887.83
2019-06-27T18:07:15.214Z,97889.16
2019-06-27T18:09:42.088Z,97891.00
2019-06-27T18:12:08.900Z,97889.16
2019-06-27T18:14:35.679Z,97891.80
2019-06-27T18:17:02.486Z,97893.64
2019-06-27T18:19:29.252Z,97897.08
2019-06-27T18:21:56.044Z,97895.75
2019-06-27T18:24:22.810Z,97894.44
2019-06-27T18:26:49.642Z,97903.15
2019-06-27T18:29:16.468Z,97900.51
2019-06-27T18:31:43.252Z,97899.98
2019-06-27T18:34:10.078Z,97899.72
2019-06-27T18:36:37.101Z,97901.03
2019-06-27T18:39:04.194Z,97894.17
2019-06-27T18:41:30.978Z,97902.36
2019-06-27T18:43:57.795Z,97906.31
2019-06-27T18:46:24.610Z,97905.27
2019-06-27T18:48:52.140Z,97902.36
2019-06-27T18:51:19.034Z,97903.42
2019-06-27T18:53:45.813Z,97902.63
2019-06-27T18:56:12.604Z,97906.84
2019-06-27T18:58:39.368Z,97907.91
2019-06-27T19:01:06.207Z,97912.66
2019-06-27T19:03:32.982Z,97912.39
2019-06-27T19:05:59.799Z,97911.87
2019-06-27T19:08:26.560Z,97917.15
2019-06-27T19:10:53.401Z,97917.15
2019-06-27T19:13:20.172Z,97918.99
2019-06-27T19:15:46.938Z,97925.86
2019-06-27T19:18:31.793Z,97922.43
2019-06-27T19:21:00.240Z,97926.92
2019-06-27T19:23:31.464Z,97929.83
2019-06-27T19:25:58.808Z,97935.11
2019-06-27T19:28:25.585Z,97939.59
2019-06-27T19:30:52.358Z,97944.34
2019-06-27T19:33:19.147Z,97954.12
2019-06-27T19:35:45.953Z,97947.52
2019-06-27T19:38:12.750Z,97954.91
2019-06-27T19:40:39.548Z,97954.91
2019-06-27T19:43:06.358Z,97956.23
2019-06-27T19:45:33.517Z,97962.05
2019-06-27T19:48:00.299Z,97966.80
2019-06-27T19:50:27.097Z,97966.80
2019-06-27T19:52:53.892Z,97964.95
2019-06-27T19:55:20.705Z,97969.44
2019-06-27T19:57:47.487Z,97972.87
2019-06-27T20:00:14.262Z,97975.81
2019-06-27T20:02:41.310Z,97974.20
2019-06-27T20:05:08.082Z,97976.84
2019-06-27T20:07:34.898Z,97982.12
2019-06-27T20:10:01.672Z,97984.23
2019-06-27T20:12:28.464Z,97986.08
2019-06-27T20:14:55.239Z,97985.55
2019-06-27T20:17:22.046Z,97996.12
2019-06-27T20:19:48.826Z,97990.84
2019-06-27T20:22:15.622Z,97995.33
2019-06-27T20:24:42.397Z,98000.08
2019-06-27T20:27:09.178Z,97993.48
2019-06-27T20:29:35.957Z,97995.09
2019-06-27T20:32:02.784Z,97997.97
2019-06-27T20:34:29.572Z,97993.48
2019-06-27T20:36:56.410Z,97996.64
2019-06-27T20:39:23.206Z,97992.16
2019-06-27T20:41:49.991Z,97997.17
2019-06-27T20:44:16.764Z,98002.72
2019-06-27T20:46:43.558Z,98008.00
2019-06-27T20:49:10.344Z,98007.20
2019-06-27T20:51:37.149Z,98008.53
2019-06-27T20:54:03.947Z,98011.17
2019-06-27T20:56:30.728Z,98018.56
2019-06-27T20:58:57.506Z,98016.45
2019-06-27T21:01:24.293Z,98019.89
2019-06-27T21:03:51.068Z,98018.07
2019-06-27T21:06:17.861Z,98020.41
2019-06-27T21:08:51.217Z,98023.84
2019-06-27T21:11:13.146Z,98023.58
2019-06-27T21:13:39.936Z,98025.69
2019-06-27T21:16:06.723Z,98019.62
2019-06-27T21:18:33.484Z,98027.02
2019-06-27T21:21:00.281Z,98026.48
2019-06-27T21:23:27.071Z,98027.81
2019-06-27T21:25:53.868Z,98033.62
2019-06-27T21:28:20.701Z,98030.98
2019-06-27T21:30:47.470Z,98034.41
2019-06-27T21:33:14.256Z,98037.58
2019-06-27T21:35:41.030Z,98038.90
2019-06-27T21:38:07.820Z,98039.70
2019-06-27T21:40:34.654Z,98042.86
2019-06-27T21:43:01.481Z,98047.62
2019-06-27T21:45:28.257Z,98034.94
2019-06-27T21:47:55.091Z,98048.14
2019-06-27T21:50:21.876Z,98040.75
2019-06-27T21:52:48.653Z,98041.27
2019-06-27T21:55:15.452Z,98041.27
2019-06-27T21:57:42.231Z,98049.99
2019-06-27T22:00:08.998Z,98041.54
2019-06-27T22:02:35.775Z,98048.14
2019-06-27T22:05:02.553Z,98042.86
2019-06-27T22:07:29.326Z,98044.70
2019-06-27T22:09:56.118Z,98046.82
2019-06-27T22:12:22.910Z,98047.35
2019-06-27T22:14:49.702Z,98052.10
2019-06-27T22:17:16.474Z,98044.18
2019-06-27T22:19:43.260Z,98046.03
2019-06-27T22:22:10.030Z,98048.67
2019-06-27T22:24:36.792Z,98039.95
2019-06-27T22:27:03.599Z,98042.86
2019-06-27T22:29:30.438Z,98049.99
2019-06-27T22:31:57.214Z,98047.88
2019-06-27T22:34:23.994Z,98049.99
2019-06-27T22:36:51.265Z,98046.03
2019-06-27T22:39:40.493Z,98046.82
2019-06-27T22:42:22.412Z,98041.27
2019-06-27T22:45:07.494Z,98038.62
2019-06-27T22:47:52.614Z,98034.67
2019-06-27T22:50:37.297Z,98046.55
2019-06-27T22:53:08.771Z,98037.84
2019-06-27T22:55:35.614Z,98035.98
2019-06-27T22:58:02.426Z,98043.91
2019-06-27T23:00:29.265Z,98034.67
2019-06-27T23:02:56.109Z,98042.59
2019-06-27T23:05:23.010Z,98043.39
2019-06-27T23:07:49.893Z,98039.42
2019-06-27T23:10:16.676Z,98037.31
2019-06-27T23:12:43.490Z,98038.11
2019-06-27T23:15:10.266Z,98049.72
2019-06-27T23:17:37.063Z,98042.59
2019-06-27T23:20:03.912Z,98047.35
2019-06-27T23:22:30.774Z,98041.80
2019-06-27T23:24:57.549Z,98046.55
2019-06-27T23:27:24.350Z,98046.03
2019-06-27T23:29:51.414Z,98042.59
2019-06-27T23:32:18.253Z,98047.88
2019-06-27T23:34:45.054Z,98048.67
2019-06-27T23:37:12.044Z,98049.99
2019-06-27T23:39:38.824Z,98053.95
2019-06-27T23:42:05.600Z,98049.20
2019-06-27T23:44:32.383Z,98041.27
2019-06-27T23:46:59.292Z,98046.03
2019-06-27T23:49:26.237Z,98045.76
2019-06-27T23:51:53.035Z,98047.35
2019-06-27T23:54:20.114Z,98044.70
2019-06-27T23:56:47.337Z,98046.82
2019-06-27T23:59:14.171Z,98047.88
